createdAt,value
2023-02-09T00:01:26.172Z,49.20
2023-02-09T00:03:54.321Z,49.53
2023-02-09T00:06:26.256Z,50.42
2023-02-09T00:08:54.638Z,50.02
2023-02-09T00:11:44.283Z,49.63
2023-02-09T00:14:11.597Z,49.87
2023-02-09T00:16:39.266Z,50.04
2023-02-09T00:19:06.962Z,49.77
2023-02-09T00:21:37.366Z,50.19
2023-02-09T00:24:06.234Z,50.30
2023-02-09T00:26:34.274Z,50.15
2023-02-09T00:29:01.889Z,50.24
2023-02-09T00:31:29.993Z,50.10
2023-02-09T00:33:57.798Z,49.93
2023-02-09T00:36:25.424Z,50.20
2023-02-09T00:38:54.447Z,50.29
2023-02-09T00:41:42.795Z,50.15
2023-02-09T00:44:10.770Z,50.86
2023-02-09T00:46:39.932Z,50.47
2023-02-09T00:49:07.713Z,50.38
2023-02-09T00:51:35.394Z,50.93
2023-02-09T00:54:04.648Z,50.81
2023-02-09T00:56:32.285Z,50.75
2023-02-09T00:58:59.908Z,50.92
2023-02-09T01:01:27.641Z,51.22
2023-02-09T01:03:55.338Z,51.60
2023-02-09T01:06:23.112Z,51.71
2023-02-09T01:08:51.177Z,51.66
2023-02-09T01:11:20.232Z,51.21
2023-02-09T01:13:47.968Z,51.23
2023-02-09T01:16:18.590Z,50.79
2023-02-09T01:18:46.453Z,51.71
2023-02-09T01:21:15.852Z,52.38
2023-02-09T01:23:43.736Z,52.12
2023-02-09T01:26:12.855Z,51.90
2023-02-09T01:28:42.248Z,51.18
2023-02-09T01:31:21.212Z,52.20
2023-02-09T01:33:49.286Z,52.86
2023-02-09T01:36:17.096Z,52.55
2023-02-09T01:38:44.752Z,52.13
2023-02-09T01:41:12.917Z,52.18
2023-02-09T01:43:59.466Z,52.33
2023-02-09T01:46:29.236Z,52.42
2023-02-09T01:49:03.776Z,52.45
2023-02-09T01:51:34.162Z,52.05
2023-02-09T01:54:06.175Z,52.01
2023-02-09T01:56:34.239Z,52.91
2023-02-09T01:59:03.217Z,52.90
2023-02-09T02:01:31.267Z,53.26
2023-02-09T02:03:58.916Z,53.10
2023-02-09T02:06:27.059Z,52.82
2023-02-09T02:08:59.763Z,52.82
2023-02-09T02:11:29.782Z,52.24
2023-02-09T02:13:57.926Z,51.97
2023-02-09T02:16:54.774Z,52.68
2023-02-09T02:19:48.108Z,52.98
2023-02-09T02:22:48.055Z,52.81
2023-02-09T02:25:54.040Z,53.02
2023-02-09T02:28:41.566Z,53.64
2023-02-09T02:31:47.958Z,53.68
2023-02-09T02:34:21.081Z,53.80
2023-02-09T02:36:59.220Z,54.05
2023-02-09T02:39:32.517Z,53.75
2023-02-09T02:42:21.210Z,53.67
2023-02-09T02:45:02.851Z,53.93
2023-02-09T02:47:35.685Z,54.24
2023-02-09T02:50:09.318Z,54.37
2023-02-09T02:52:39.138Z,54.12
2023-02-09T02:55:10.807Z,54.03
2023-02-09T02:57:44.295Z,53.61
2023-02-09T03:00:15.465Z,54.12
2023-02-09T03:02:48.064Z,53.62
2023-02-09T03:05:17.529Z,53.70
2023-02-09T03:07:45.438Z,54.47
2023-02-09T03:10:28.470Z,54.68
2023-02-09T03:13:07.874Z,54.46
2023-02-09T03:15:49.563Z,54.55
2023-02-09T03:18:27.203Z,54.20
2023-02-09T03:21:00.072Z,53.88
2023-02-09T03:23:33.915Z,54.25
2023-02-09T03:26:08.761Z,54.76
2023-02-09T03:28:40.534Z,55.01
2023-02-09T03:31:10.163Z,54.58
2023-02-09T03:33:40.419Z,54.64
2023-02-09T03:36:13.653Z,54.87
2023-02-09T03:38:41.229Z,54.87
2023-02-09T03:41:08.883Z,54.54
2023-02-09T03:43:54.276Z,54.35
2023-02-09T03:46:22.125Z,54.86
2023-02-09T03:48:51.060Z,54.92
2023-02-09T03:51:18.943Z,54.54
2023-02-09T03:53:47.244Z,55.08
2023-02-09T03:56:14.901Z,55.05
2023-02-09T03:58:42.582Z,55.16
2023-02-09T04:01:12.063Z,55.10
2023-02-09T04:03:40.701Z,55.23
2023-02-09T04:06:10.981Z,55.04
2023-02-09T04:08:38.831Z,54.96
2023-02-09T04:11:06.553Z,54.52
2023-02-09T04:13:34.298Z,54.18
2023-02-09T04:16:01.956Z,54.00
2023-02-09T04:18:29.683Z,53.86
2023-02-09T04:20:57.353Z,53.72
2023-02-09T04:23:26.366Z,53.96
2023-02-09T04:25:54.010Z,54.03
2023-02-09T04:28:21.773Z,54.07
2023-02-09T04:30:52.987Z,53.90
2023-02-09T04:33:20.999Z,53.83
2023-02-09T04:35:48.966Z,53.79
2023-02-09T04:38:19.341Z,53.71
2023-02-09T04:40:48.556Z,53.44
2023-02-09T04:43:16.252Z,53.78
2023-02-09T04:45:44.423Z,53.97
2023-02-09T04:48:15.153Z,53.63
2023-02-09T04:50:43.637Z,53.81
2023-02-09T04:53:11.686Z,53.81
2023-02-09T04:55:39.609Z,54.08
2023-02-09T04:58:26.104Z,54.40
2023-02-09T05:00:55.900Z,54.76
2023-02-09T05:03:24.731Z,54.67
2023-02-09T05:05:55.720Z,53.82
2023-02-09T05:08:23.837Z,54.27
2023-02-09T05:10:52.101Z,54.15
2023-02-09T05:13:22.230Z,54.20
2023-02-09T05:15:49.919Z,54.49
2023-02-09T05:18:18.129Z,54.25
2023-02-09T05:20:46.998Z,54.03
2023-02-09T05:23:15.558Z,54.24
2023-02-09T05:25:43.240Z,54.16
2023-02-09T05:28:10.996Z,54.03
2023-02-09T05:30:40.279Z,54.18
2023-02-09T05:33:08.052Z,54.12
2023-02-09T05:35:35.800Z,54.57
2023-02-09T05:38:04.615Z,54.56
2023-02-09T05:40:32.376Z,54.33
2023-02-09T05:43:00.287Z,54.31
2023-02-09T05:45:28.056Z,54.16
2023-02-09T05:47:57.082Z,54.25
2023-02-09T05:50:24.823Z,54.66
2023-02-09T05:52:52.448Z,54.39
2023-02-09T05:55:20.286Z,54.14
2023-02-09T05:57:48.067Z,54.42
2023-02-09T06:00:16.742Z,54.66
2023-02-09T06:02:44.544Z,54.79
2023-02-09T06:05:13.564Z,54.66
2023-02-09T06:07:41.176Z,55.04
2023-02-09T06:10:09.342Z,55.08
2023-02-09T06:12:37.015Z,54.75
2023-02-09T06:15:05.433Z,54.65
2023-02-09T06:17:33.160Z,54.37
2023-02-09T06:20:00.909Z,54.43
2023-02-09T06:22:31.731Z,54.38
2023-02-09T06:24:59.530Z,54.71
2023-02-09T06:27:27.245Z,55.12
2023-02-09T06:29:54.935Z,55.51
2023-02-09T06:32:22.610Z,54.83
2023-02-09T06:34:50.411Z,55.12
2023-02-09T06:37:18.070Z,55.19
2023-02-09T06:39:47.122Z,55.29
2023-02-09T06:42:14.806Z,55.19
2023-02-09T06:44:42.458Z,55.33
2023-02-09T06:47:10.220Z,55.48
2023-02-09T06:49:37.983Z,55.88
2023-02-09T06:52:06.249Z,56.64
2023-02-09T06:54:33.905Z,56.33
2023-02-09T06:57:02.909Z,56.31
2023-02-09T06:59:30.572Z,56.11
2023-02-09T07:01:58.310Z,55.95
2023-02-09T07:04:26.243Z,56.13
2023-02-09T07:06:53.879Z,55.98
2023-02-09T07:09:21.529Z,55.48
2023-02-09T07:11:49.254Z,55.18
2023-02-09T07:14:18.224Z,55.56
2023-02-09T07:16:45.849Z,56.33
2023-02-09T07:19:13.941Z,56.20
2023-02-09T07:21:41.677Z,55.83
2023-02-09T07:24:09.302Z,55.89
2023-02-09T07:26:37.017Z,55.54
2023-02-09T07:29:04.678Z,54.87
2023-02-09T07:31:34.198Z,54.65
2023-02-09T07:34:02.781Z,54.56
2023-02-09T07:36:30.438Z,54.86
2023-02-09T07:38:59.480Z,54.35
2023-02-09T07:41:28.615Z,54.36
2023-02-09T07:43:57.356Z,54.86
2023-02-09T07:46:25.529Z,55.14
2023-02-09T07:48:54.694Z,55.47
2023-02-09T07:51:25.363Z,55.67
2023-02-09T07:53:53.827Z,55.59
2023-02-09T07:56:21.596Z,55.24
2023-02-09T07:58:49.558Z,55.24
2023-02-09T08:01:17.763Z,55.20
2023-02-09T08:03:47.079Z,54.62
2023-02-09T08:06:21.815Z,54.70
2023-02-09T08:08:52.281Z,54.73
2023-02-09T08:11:22.747Z,54.30
2023-02-09T08:13:51.974Z,54.34
2023-02-09T08:16:25.704Z,54.16
2023-02-09T08:18:56.704Z,53.99
2023-02-09T08:21:27.288Z,53.57
2023-02-09T08:23:58.771Z,52.92
2023-02-09T08:26:26.935Z,52.08
2023-02-09T08:28:55.203Z,51.67
2023-02-09T08:31:23.074Z,51.57
2023-02-09T08:33:52.605Z,51.82
2023-02-09T08:36:21.054Z,52.53
2023-02-09T08:38:50.265Z,52.02
2023-02-09T08:41:18.659Z,52.15
2023-02-09T08:43:48.942Z,52.43
2023-02-09T08:46:16.996Z,52.13
2023-02-09T08:48:47.094Z,51.78
2023-02-09T08:51:16.391Z,51.47
2023-02-09T08:53:46.113Z,51.79
2023-02-09T08:56:15.154Z,51.53
2023-02-09T08:58:42.832Z,50.85
2023-02-09T09:01:10.531Z,50.09
2023-02-09T09:03:38.315Z,50.41
2023-02-09T09:06:07.869Z,49.98
2023-02-09T09:08:37.683Z,49.64
2023-02-09T09:11:06.807Z,49.60
2023-02-09T09:13:35.909Z,49.23
2023-02-09T09:16:05.211Z,48.87
2023-02-09T09:18:33.046Z,47.21
2023-02-09T09:21:00.841Z,46.47
2023-02-09T09:23:28.537Z,43.85
2023-02-09T09:26:01.459Z,41.42
2023-02-09T09:28:29.238Z,38.57
2023-02-09T09:30:59.894Z,35.58
2023-02-09T09:33:27.760Z,33.85
2023-02-09T09:35:55.489Z,31.28
2023-02-09T09:38:23.149Z,29.03
2023-02-09T09:40:50.832Z,28.12
2023-02-09T09:43:24.925Z,26.80
2023-02-09T09:45:52.802Z,26.55
2023-02-09T09:48:25.332Z,25.19
2023-02-09T09:50:56.557Z,24.67
2023-02-09T09:53:33.333Z,24.12
2023-02-09T09:56:05.158Z,23.84
2023-02-09T09:58:34.256Z,24.58
2023-02-09T10:01:02.425Z,25.57
2023-02-09T10:03:31.525Z,24.85
2023-02-09T10:06:04.098Z,25.23
2023-02-09T10:08:35.925Z,25.53
2023-02-09T10:11:08.049Z,26.99
2023-02-09T10:13:39.607Z,28.81
2023-02-09T10:16:17.063Z,28.78
2023-02-09T10:18:46.801Z,27.98
2023-02-09T10:21:16.593Z,27.66
2023-02-09T10:23:46.526Z,29.01
2023-02-09T10:26:32.789Z,30.65
2023-02-09T10:29:08.112Z,32.08
2023-02-09T10:31:39.395Z,30.65
2023-02-09T10:34:14.832Z,28.50
2023-02-09T10:36:49.844Z,25.94
2023-02-09T10:39:20.513Z,25.62
2023-02-09T10:41:51.233Z,23.10
2023-02-09T10:44:23.481Z,20.79
2023-02-09T10:47:08.612Z,19.32
2023-02-09T10:49:39.905Z,17.83
2023-02-09T10:52:15.189Z,16.84
2023-02-09T10:54:44.558Z,18.68
2023-02-09T10:57:24.353Z,19.55
2023-02-09T10:59:53.290Z,22.86
2023-02-09T11:02:35.959Z,26.10
2023-02-09T11:05:25.425Z,27.88
2023-02-09T11:07:57.430Z,28.48
2023-02-09T11:10:27.009Z,28.47
2023-02-09T11:12:54.616Z,27.64
2023-02-09T11:15:27.123Z,28.41
2023-02-09T11:18:03.014Z,29.50
2023-02-09T11:20:36.577Z,29.99
2023-02-09T11:23:26.032Z,29.24
2023-02-09T11:26:01.112Z,30.16
2023-02-09T11:28:51.021Z,30.26
2023-02-09T11:31:32.399Z,29.19
2023-02-09T11:34:13.154Z,27.69
2023-02-09T11:36:49.728Z,27.64
2023-02-09T11:39:25.859Z,26.44
2023-02-09T11:42:18.172Z,25.38
2023-02-09T11:44:52.730Z,25.63
2023-02-09T11:47:27.105Z,25.44
2023-02-09T11:49:57.555Z,25.89
2023-02-09T11:52:32.693Z,26.27
2023-02-09T11:55:03.646Z,25.65
2023-02-09T11:57:37.083Z,24.86
2023-02-09T12:00:07.930Z,23.95
2023-02-09T12:02:47.652Z,22.75
2023-02-09T12:05:19.651Z,21.27
2023-02-09T12:08:13.689Z,21.16
2023-02-09T12:10:48.062Z,21.22
2023-02-09T12:13:31.344Z,21.66
2023-02-09T12:16:02.976Z,22.65
2023-02-09T12:18:33.176Z,24.28
2023-02-09T12:21:02.352Z,25.67
2023-02-09T12:23:34.036Z,26.55
2023-02-09T12:26:03.073Z,27.00
2023-02-09T12:28:42.284Z,27.51
2023-02-09T12:31:13.865Z,27.25
2023-02-09T12:34:10.608Z,27.20
2023-02-09T12:36:38.404Z,27.55
2023-02-09T12:39:25.284Z,28.34
2023-02-09T12:42:29.394Z,28.62
2023-02-09T12:44:59.197Z,28.46
2023-02-09T12:47:58.508Z,27.54
2023-02-09T12:50:47.154Z,29.39
2023-02-09T12:53:47.845Z,30.30
2023-02-09T12:56:34.067Z,30.96
2023-02-09T12:59:16.165Z,30.18
2023-02-09T13:02:24.034Z,29.46
2023-02-09T13:05:13.970Z,29.59
2023-02-09T13:07:49.501Z,30.63
2023-02-09T13:10:26.754Z,30.18
2023-02-09T13:13:04.126Z,30.00
2023-02-09T13:15:44.808Z,30.34
2023-02-09T13:18:21.077Z,29.51
2023-02-09T13:21:13.739Z,29.62
2023-02-09T13:23:56.436Z,30.51
2023-02-09T13:26:26.657Z,31.01
2023-02-09T13:29:19.940Z,30.72
2023-02-09T13:31:55.851Z,31.50
2023-02-09T13:34:33.053Z,32.08
2023-02-09T13:37:14.523Z,32.42
2023-02-09T13:39:44.174Z,33.36
2023-02-09T13:42:20.356Z,33.61
2023-02-09T13:44:52.635Z,34.72
2023-02-09T13:47:20.427Z,35.26
2023-02-09T13:49:59.715Z,35.70
2023-02-09T13:52:32.846Z,36.58
2023-02-09T13:55:12.620Z,36.80
2023-02-09T13:57:43.322Z,37.20
2023-02-09T14:00:23.448Z,38.44
2023-02-09T14:02:54.426Z,39.08
2023-02-09T14:05:31.500Z,39.66
2023-02-09T14:08:00.066Z,39.87
2023-02-09T14:10:30.079Z,39.38
2023-02-09T14:13:01.814Z,39.33
2023-02-09T14:15:54.228Z,39.57
2023-02-09T14:18:34.432Z,40.43
2023-02-09T14:21:04.741Z,40.97
2023-02-09T14:23:35.217Z,40.99
2023-02-09T14:26:05.872Z,42.16
2023-02-09T14:28:35.118Z,41.44
2023-02-09T14:31:04.782Z,41.61
2023-02-09T14:33:35.796Z,42.53
2023-02-09T14:36:04.681Z,42.04
2023-02-09T14:38:37.744Z,42.17
2023-02-09T14:41:31.171Z,42.70
2023-02-09T14:44:04.545Z,43.45
2023-02-09T14:49:26.582Z,43.11
2023-02-09T14:52:03.024Z,43.29
2023-02-09T14:54:33.901Z,43.67
2023-02-09T14:57:03.751Z,43.92
2023-02-09T14:59:31.816Z,43.98
2023-02-09T15:01:59.613Z,44.15
2023-02-09T15:04:28.618Z,44.31
2023-02-09T15:07:04.484Z,44.08
2023-02-09T15:09:36.820Z,44.31
2023-02-09T15:12:07.636Z,44.19
2023-02-09T15:14:45.000Z,43.67
2023-02-09T15:17:16.129Z,44.25
2023-02-09T15:19:46.056Z,44.15
2023-02-09T15:22:16.142Z,44.15
2023-02-09T15:24:44.519Z,44.40
2023-02-09T15:27:19.749Z,44.46
2023-02-09T15:29:47.993Z,43.66
2023-02-09T15:32:17.322Z,43.72
2023-02-09T15:34:47.261Z,44.10
2023-02-09T15:37:21.421Z,44.36
2023-02-09T15:39:50.169Z,43.96
2023-02-09T15:42:51.498Z,44.19
2023-02-09T15:45:34.952Z,44.15
2023-02-09T15:48:02.737Z,44.65
2023-02-09T15:50:34.307Z,44.84
2023-02-09T15:53:04.155Z,45.28
2023-02-09T15:55:32.674Z,45.47
2023-02-09T15:58:00.629Z,45.58
2023-02-09T16:00:30.079Z,45.58
2023-02-09T16:03:00.079Z,45.74
2023-02-09T16:05:30.017Z,45.97
2023-02-09T16:08:00.550Z,46.47
2023-02-09T16:10:30.893Z,46.22
2023-02-09T16:12:58.695Z,46.26
2023-02-09T16:15:27.713Z,46.46
2023-02-09T16:17:55.364Z,46.83
2023-02-09T16:20:25.804Z,47.17
2023-02-09T16:22:55.662Z,47.28
2023-02-09T16:25:26.852Z,47.57
2023-02-09T16:27:56.044Z,47.76
2023-02-09T16:30:26.177Z,47.17
2023-02-09T16:32:54.574Z,47.61
2023-02-09T16:35:24.133Z,47.76
2023-02-09T16:37:56.104Z,47.63
2023-02-09T16:40:27.952Z,48.01
2023-02-09T16:42:57.747Z,47.99
2023-02-09T16:45:26.974Z,48.40
2023-02-09T16:47:59.172Z,48.01
2023-02-09T16:50:33.072Z,48.41
2023-02-09T16:53:03.912Z,48.71
2023-02-09T16:55:35.475Z,49.29
2023-02-09T16:58:05.281Z,49.06
2023-02-09T17:00:34.763Z,49.11
2023-02-09T17:03:09.516Z,49.24
2023-02-09T17:05:38.049Z,49.79
2023-02-09T17:08:08.794Z,49.90
2023-02-09T17:10:37.813Z,49.90
2023-02-09T17:13:05.597Z,50.36
2023-02-09T17:15:39.351Z,50.29
2023-02-09T17:18:10.080Z,50.50
2023-02-09T17:20:41.830Z,50.19
2023-02-09T17:23:14.265Z,49.90
2023-02-09T17:25:44.244Z,49.71
2023-02-09T17:28:12.445Z,50.41
2023-02-09T17:30:41.023Z,51.08
2023-02-09T17:33:18.301Z,50.65
2023-02-09T17:36:13.968Z,50.60
2023-02-09T17:38:35.950Z,50.91
2023-02-09T17:41:07.674Z,51.00
2023-02-09T17:43:35.427Z,51.26
2023-02-09T17:46:05.183Z,51.58
2023-02-09T17:48:32.983Z,51.83
2023-02-09T17:51:02.670Z,51.80
2023-02-09T17:53:35.300Z,52.10
2023-02-09T17:56:03.311Z,52.38
2023-02-09T17:58:32.405Z,52.44
2023-02-09T18:01:00.145Z,52.64
2023-02-09T18:03:28.005Z,52.74
2023-02-09T18:05:58.411Z,52.62
2023-02-09T18:08:27.231Z,52.81
2023-02-09T18:10:56.922Z,53.16
2023-02-09T18:13:26.958Z,53.51
2023-02-09T18:15:56.239Z,53.38
2023-02-09T18:18:24.472Z,53.12
2023-02-09T18:20:52.447Z,53.33
2023-02-09T18:23:20.175Z,53.59
2023-02-09T18:25:49.639Z,53.55
2023-02-09T18:28:17.653Z,54.03
2023-02-09T18:30:46.262Z,53.50
2023-02-09T18:33:16.430Z,53.81
2023-02-09T18:35:45.725Z,54.34
2023-02-09T18:38:15.778Z,54.49
2023-02-09T18:40:43.500Z,54.65
2023-02-09T18:43:14.532Z,54.76
2023-02-09T18:45:42.198Z,54.77
2023-02-09T18:48:11.685Z,54.71
2023-02-09T18:50:40.804Z,54.83
2023-02-09T18:53:08.762Z,54.20
2023-02-09T18:55:36.537Z,55.01
2023-02-09T18:58:06.175Z,55.15
2023-02-09T19:00:34.184Z,55.46
2023-02-09T19:03:02.209Z,55.31
2023-02-09T19:05:32.069Z,55.32
2023-02-09T19:08:01.757Z,54.98
2023-02-09T19:10:32.949Z,55.36
2023-02-09T19:13:01.887Z,55.47
2023-02-09T19:15:30.253Z,55.45
2023-02-09T19:17:57.974Z,55.05
2023-02-09T19:20:27.568Z,55.20
2023-02-09T19:22:56.114Z,55.60
2023-02-09T19:25:26.792Z,55.21
2023-02-09T19:27:55.160Z,55.68
2023-02-09T19:30:26.382Z,56.23
2023-02-09T19:32:55.259Z,56.40
2023-02-09T19:35:23.331Z,56.22
2023-02-09T19:37:52.493Z,56.34
2023-02-09T19:40:28.104Z,55.98
2023-02-09T19:42:57.533Z,55.37
2023-02-09T19:45:25.251Z,55.64
2023-02-09T19:47:52.910Z,55.57
2023-02-09T19:50:20.783Z,55.61
2023-02-09T19:52:50.228Z,55.75
2023-02-09T19:55:18.022Z,55.78
2023-02-09T19:57:45.740Z,55.75
2023-02-09T20:00:18.067Z,55.25
2023-02-09T20:02:46.038Z,55.44
2023-02-09T20:05:14.058Z,55.48
2023-02-09T20:07:41.726Z,55.97
2023-02-09T20:10:10.491Z,55.87
2023-02-09T20:12:38.208Z,55.56
2023-02-09T20:15:06.282Z,55.05
2023-02-09T20:17:35.389Z,55.39
2023-02-09T20:20:03.017Z,55.72
2023-02-09T20:22:30.767Z,55.63
2023-02-09T20:24:58.403Z,55.45
2023-02-09T20:27:26.091Z,55.40
2023-02-09T20:29:57.194Z,55.38
2023-02-09T20:32:24.852Z,55.70
2023-02-09T20:34:53.798Z,55.45
2023-02-09T20:37:21.479Z,55.42
2023-02-09T20:39:49.131Z,55.70
2023-02-09T20:42:34.902Z,56.01
2023-02-09T20:45:20.304Z,56.20
2023-02-09T20:47:48.085Z,56.38
2023-02-09T20:50:17.850Z,56.63
2023-02-09T20:52:46.035Z,57.18
2023-02-09T20:55:14.222Z,57.20
2023-02-09T20:57:42.466Z,57.33
2023-02-09T21:00:11.248Z,57.41
2023-02-09T21:02:39.173Z,57.13
2023-02-09T21:05:07.278Z,57.62
2023-02-09T21:07:36.624Z,57.29
2023-02-09T21:10:04.688Z,57.62
2023-02-09T21:12:32.372Z,57.57
2023-02-09T21:15:00.097Z,57.52
2023-02-09T21:17:27.813Z,57.27
2023-02-09T21:19:55.541Z,57.49
2023-02-09T21:22:23.288Z,57.66
2023-02-09T21:24:52.371Z,57.50
2023-02-09T21:27:20.488Z,57.37
2023-02-09T21:29:48.460Z,57.46
2023-02-09T21:32:16.348Z,57.46
2023-02-09T21:34:44.199Z,57.38
2023-02-09T21:37:14.128Z,58.06
2023-02-09T21:39:42.383Z,58.81
2023-02-09T21:42:30.286Z,59.06
2023-02-09T21:44:59.811Z,58.78
2023-02-09T21:47:28.589Z,57.92
2023-02-09T21:49:57.271Z,57.44
2023-02-09T21:52:25.770Z,57.31
2023-02-09T21:54:54.725Z,57.29
2023-02-09T21:57:24.149Z,57.12
2023-02-09T21:59:52.096Z,57.28
2023-02-09T22:02:21.274Z,57.34
2023-02-09T22:04:49.712Z,57.47
2023-02-09T22:07:17.806Z,57.16
2023-02-09T22:09:45.516Z,56.52
2023-02-09T22:12:13.301Z,56.57
2023-02-09T22:14:42.526Z,57.32
2023-02-09T22:17:10.550Z,57.35
2023-02-09T22:19:38.976Z,57.16
2023-02-09T22:22:06.944Z,57.01
2023-02-09T22:24:34.889Z,56.61
2023-02-09T22:27:03.485Z,56.22
2023-02-09T22:29:33.323Z,56.24
2023-02-09T22:32:02.566Z,56.93
2023-02-09T22:34:30.315Z,56.77
2023-02-09T22:36:58.132Z,56.57
2023-02-09T22:39:25.977Z,57.08
2023-02-09T22:41:58.058Z,57.13
2023-02-09T22:44:28.005Z,56.82
2023-02-09T22:46:55.894Z,57.30
2023-02-09T22:49:25.102Z,57.06
2023-02-09T22:51:53.195Z,57.29
2023-02-09T22:54:21.316Z,57.20
2023-02-09T22:56:49.124Z,57.37
2023-02-09T22:59:17.122Z,57.98
2023-02-09T23:01:45.416Z,58.42
2023-02-09T23:04:13.300Z,58.55
2023-02-09T23:06:42.548Z,58.48
2023-02-09T23:09:10.303Z,58.20
2023-02-09T23:11:38.144Z,57.80
2023-02-09T23:14:10.224Z,58.10
2023-02-09T23:16:39.974Z,57.63
2023-02-09T23:19:11.029Z,57.59
2023-02-09T23:21:42.082Z,57.67
2023-02-09T23:24:12.716Z,57.42
2023-02-09T23:26:40.879Z,57.39
2023-02-09T23:29:10.891Z,57.33
2023-02-09T23:31:39.052Z,57.06
2023-02-09T23:34:06.750Z,57.04
2023-02-09T23:36:35.984Z,57.35
2023-02-09T23:39:07.436Z,56.90
2023-02-09T23:41:36.756Z,56.83
2023-02-09T23:44:04.844Z,56.79
2023-02-09T23:46:32.947Z,56.69
2023-02-09T23:49:01.599Z,56.54
2023-02-09T23:51:31.422Z,57.28
2023-02-09T23:54:01.952Z,57.53
2023-02-09T23:56:31.821Z,57.70
2023-02-09T23:59:00.971Z,57.99
